sensor_id;sensor_type;location;lat;lon;timestamp;temperature;humidity
21734;DHT22;11029;47.820;10.534;2024-02-26T00:00:22;0.90;68.50
21734;DHT22;11029;47.820;10.534;2024-02-26T00:03:08;0.90;68.30
21734;DHT22;11029;47.820;10.534;2024-02-26T00:05:53;0.90;68.60
21734;DHT22;11029;47.820;10.534;2024-02-26T00:08:41;0.90;69.30
21734;DHT22;11029;47.820;10.534;2024-02-26T00:11:27;0.90;69.00
21734;DHT22;11029;47.820;10.534;2024-02-26T00:14:13;0.90;68.70
21734;DHT22;11029;47.820;10.534;2024-02-26T00:16:59;0.90;69.50
21734;DHT22;11029;47.820;10.534;2024-02-26T00:19:45;1.00;68.80
21734;DHT22;11029;47.820;10.534;2024-02-26T00:22:31;0.90;68.90
21734;DHT22;11029;47.820;10.534;2024-02-26T00:25:17;0.90;69.30
21734;DHT22;11029;47.820;10.534;2024-02-26T00:28:02;0.90;69.10
21734;DHT22;11029;47.820;10.534;2024-02-26T00:30:47;0.90;68.80
21734;DHT22;11029;47.820;10.534;2024-02-26T00:33:33;0.80;68.90
21734;DHT22;11029;47.820;10.534;2024-02-26T00:36:19;0.80;69.40
21734;DHT22;11029;47.820;10.534;2024-02-26T00:39:05;0.90;69.40
21734;DHT22;11029;47.820;10.534;2024-02-26T00:41:50;0.90;69.20
21734;DHT22;11029;47.820;10.534;2024-02-26T00:44:36;0.90;70.00
21734;DHT22;11029;47.820;10.534;2024-02-26T00:47:22;0.90;69.90
21734;DHT22;11029;47.820;10.534;2024-02-26T00:50:08;1.00;69.20
21734;DHT22;11029;47.820;10.534;2024-02-26T00:52:54;1.00;69.30
21734;DHT22;11029;47.820;10.534;2024-02-26T00:55:40;0.90;68.70
21734;DHT22;11029;47.820;10.534;2024-02-26T00:58:26;0.80;69.20
21734;DHT22;11029;47.820;10.534;2024-02-26T01:01:11;0.80;70.20
21734;DHT22;11029;47.820;10.534;2024-02-26T01:03:57;0.80;69.40
21734;DHT22;11029;47.820;10.534;2024-02-26T01:06:43;0.80;69.80
21734;DHT22;11029;47.820;10.534;2024-02-26T01:09:29;0.90;69.00
21734;DHT22;11029;47.820;10.534;2024-02-26T01:12:14;0.80;69.70
21734;DHT22;11029;47.820;10.534;2024-02-26T01:15:01;0.90;69.20
21734;DHT22;11029;47.820;10.534;2024-02-26T01:17:51;0.90;69.90
21734;DHT22;11029;47.820;10.534;2024-02-26T01:20:37;1.10;69.20
21734;DHT22;11029;47.820;10.534;2024-02-26T01:23:22;1.10;69.10
21734;DHT22;11029;47.820;10.534;2024-02-26T01:26:08;1.10;68.80
21734;DHT22;11029;47.820;10.534;2024-02-26T01:28:53;1.10;68.90
21734;DHT22;11029;47.820;10.534;2024-02-26T01:31:40;1.10;68.80
21734;DHT22;11029;47.820;10.534;2024-02-26T01:34:26;1.20;68.40
21734;DHT22;11029;47.820;10.534;2024-02-26T01:37:12;1.20;68.60
21734;DHT22;11029;47.820;10.534;2024-02-26T01:39:58;1.10;68.20
21734;DHT22;11029;47.820;10.534;2024-02-26T01:42:44;1.00;68.40
21734;DHT22;11029;47.820;10.534;2024-02-26T01:45:29;0.90;68.90
21734;DHT22;11029;47.820;10.534;2024-02-26T01:48:15;0.90;69.80
21734;DHT22;11029;47.820;10.534;2024-02-26T01:51:01;0.90;70.00
21734;DHT22;11029;47.820;10.534;2024-02-26T01:53:47;0.90;69.80
21734;DHT22;11029;47.820;10.534;2024-02-26T01:56:34;0.90;70.00
21734;DHT22;11029;47.820;10.534;2024-02-26T01:59:20;1.00;70.10
21734;DHT22;11029;47.820;10.534;2024-02-26T02:02:08;1.10;69.30
21734;DHT22;11029;47.820;10.534;2024-02-26T02:04:54;1.10;69.70
21734;DHT22;11029;47.820;10.534;2024-02-26T02:07:40;1.20;69.20
21734;DHT22;11029;47.820;10.534;2024-02-26T02:10:27;1.20;69.10
21734;DHT22;11029;47.820;10.534;2024-02-26T02:13:13;1.20;68.90
21734;DHT22;11029;47.820;10.534;2024-02-26T02:15:59;1.30;68.70
21734;DHT22;11029;47.820;10.534;2024-02-26T02:18:44;1.30;68.80
21734;DHT22;11029;47.820;10.534;2024-02-26T02:21:30;1.30;68.10
21734;DHT22;11029;47.820;10.534;2024-02-26T02:24:16;1.40;69.00
21734;DHT22;11029;47.820;10.534;2024-02-26T02:27:02;1.40;68.60
21734;DHT22;11029;47.820;10.534;2024-02-26T02:29:48;1.50;67.90
21734;DHT22;11029;47.820;10.534;2024-02-26T02:32:36;1.50;68.10
21734;DHT22;11029;47.820;10.534;2024-02-26T02:35:24;1.40;68.70
21734;DHT22;11029;47.820;10.534;2024-02-26T02:38:10;1.40;68.30
21734;DHT22;11029;47.820;10.534;2024-02-26T02:40:55;1.40;68.80
21734;DHT22;11029;47.820;10.534;2024-02-26T02:43:41;1.40;68.90
21734;DHT22;11029;47.820;10.534;2024-02-26T02:46:28;1.30;69.20
21734;DHT22;11029;47.820;10.534;2024-02-26T02:49:14;1.30;70.10
21734;DHT22;11029;47.820;10.534;2024-02-26T02:52:00;1.40;70.50
21734;DHT22;11029;47.820;10.534;2024-02-26T02:54:46;1.40;70.50
21734;DHT22;11029;47.820;10.534;2024-02-26T02:57:33;1.50;70.60
21734;DHT22;11029;47.820;10.534;2024-02-26T03:00:18;1.50;70.50
21734;DHT22;11029;47.820;10.534;2024-02-26T03:03:04;1.50;70.70
21734;DHT22;11029;47.820;10.534;2024-02-26T03:05:50;1.60;70.60
21734;DHT22;11029;47.820;10.534;2024-02-26T03:08:36;1.60;70.60
21734;DHT22;11029;47.820;10.534;2024-02-26T03:11:23;1.60;70.20
21734;DHT22;11029;47.820;10.534;2024-02-26T03:14:08;1.50;70.30
21734;DHT22;11029;47.820;10.534;2024-02-26T03:16:56;1.50;70.50
21734;DHT22;11029;47.820;10.534;2024-02-26T03:19:44;1.70;69.70
21734;DHT22;11029;47.820;10.534;2024-02-26T03:22:32;1.60;70.10
21734;DHT22;11029;47.820;10.534;2024-02-26T03:25:17;1.60;70.40
21734;DHT22;11029;47.820;10.534;2024-02-26T03:28:03;1.60;70.90
21734;DHT22;11029;47.820;10.534;2024-02-26T03:30:49;1.60;71.40
21734;DHT22;11029;47.820;10.534;2024-02-26T03:33:34;1.60;71.20
21734;DHT22;11029;47.820;10.534;2024-02-26T03:36:21;1.60;71.50
21734;DHT22;11029;47.820;10.534;2024-02-26T03:39:10;1.80;70.70
21734;DHT22;11029;47.820;10.534;2024-02-26T03:41:56;1.70;71.10
21734;DHT22;11029;47.820;10.534;2024-02-26T03:44:42;1.80;71.10
21734;DHT22;11029;47.820;10.534;2024-02-26T03:47:27;1.70;70.80
21734;DHT22;11029;47.820;10.534;2024-02-26T03:50:12;1.60;71.60
21734;DHT22;11029;47.820;10.534;2024-02-26T03:52:58;1.50;71.80
21734;DHT22;11029;47.820;10.534;2024-02-26T03:55:44;1.40;72.70
21734;DHT22;11029;47.820;10.534;2024-02-26T03:58:29;1.50;73.10
21734;DHT22;11029;47.820;10.534;2024-02-26T04:01:15;1.60;72.80
21734;DHT22;11029;47.820;10.534;2024-02-26T04:04:01;1.60;72.50
21734;DHT22;11029;47.820;10.534;2024-02-26T04:06:46;1.70;72.40
21734;DHT22;11029;47.820;10.534;2024-02-26T04:09:33;1.70;73.00
21734;DHT22;11029;47.820;10.534;2024-02-26T04:12:19;1.70;73.70
21734;DHT22;11029;47.820;10.534;2024-02-26T04:15:05;1.80;73.30
21734;DHT22;11029;47.820;10.534;2024-02-26T04:17:51;1.90;72.00
21734;DHT22;11029;47.820;10.534;2024-02-26T04:20:37;1.80;72.60
21734;DHT22;11029;47.820;10.534;2024-02-26T04:23:23;1.90;72.40
21734;DHT22;11029;47.820;10.534;2024-02-26T04:26:08;1.70;72.80
21734;DHT22;11029;47.820;10.534;2024-02-26T04:28:54;1.70;72.20
21734;DHT22;11029;47.820;10.534;2024-02-26T04:31:39;1.70;71.60
21734;DHT22;11029;47.820;10.534;2024-02-26T04:34:25;1.80;71.70
21734;DHT22;11029;47.820;10.534;2024-02-26T04:37:11;1.90;71.90
21734;DHT22;11029;47.820;10.534;2024-02-26T04:40:00;2.00;71.60
21734;DHT22;11029;47.820;10.534;2024-02-26T04:42:46;2.10;71.60
21734;DHT22;11029;47.820;10.534;2024-02-26T04:45:32;2.10;70.90
21734;DHT22;11029;47.820;10.534;2024-02-26T04:48:17;2.20;70.90
21734;DHT22;11029;47.820;10.534;2024-02-26T04:51:03;2.20;70.80
21734;DHT22;11029;47.820;10.534;2024-02-26T04:53:49;2.20;71.00
21734;DHT22;11029;47.820;10.534;2024-02-26T04:56:35;2.20;70.70
21734;DHT22;11029;47.820;10.534;2024-02-26T04:59:20;2.10;71.40
21734;DHT22;11029;47.820;10.534;2024-02-26T05:02:06;2.10;71.50
21734;DHT22;11029;47.820;10.534;2024-02-26T05:04:52;2.10;72.20
21734;DHT22;11029;47.820;10.534;2024-02-26T05:07:41;2.10;72.60
21734;DHT22;11029;47.820;10.534;2024-02-26T05:10:28;2.10;72.40
21734;DHT22;11029;47.820;10.534;2024-02-26T05:13:14;2.00;72.70
21734;DHT22;11029;47.820;10.534;2024-02-26T05:16:01;1.80;73.80
21734;DHT22;11029;47.820;10.534;2024-02-26T05:18:46;1.80;74.20
21734;DHT22;11029;47.820;10.534;2024-02-26T05:21:32;1.80;74.30
21734;DHT22;11029;47.820;10.534;2024-02-26T05:24:18;1.80;74.60
21734;DHT22;11029;47.820;10.534;2024-02-26T05:27:08;1.90;74.80
21734;DHT22;11029;47.820;10.534;2024-02-26T05:29:53;2.00;74.70
21734;DHT22;11029;47.820;10.534;2024-02-26T05:32:39;2.10;73.80
21734;DHT22;11029;47.820;10.534;2024-02-26T05:35:25;2.20;73.60
21734;DHT22;11029;47.820;10.534;2024-02-26T05:38:11;2.20;72.90
21734;DHT22;11029;47.820;10.534;2024-02-26T05:40:57;2.30;72.70
21734;DHT22;11029;47.820;10.534;2024-02-26T05:43:43;2.30;72.60
21734;DHT22;11029;47.820;10.534;2024-02-26T05:46:29;2.30;72.30
21734;DHT22;11029;47.820;10.534;2024-02-26T05:49:15;2.30;73.00
21734;DHT22;11029;47.820;10.534;2024-02-26T05:52:00;2.30;72.50
21734;DHT22;11029;47.820;10.534;2024-02-26T05:54:46;2.40;72.20
21734;DHT22;11029;47.820;10.534;2024-02-26T05:57:33;2.40;71.90
21734;DHT22;11029;47.820;10.534;2024-02-26T06:00:19;2.30;72.30
21734;DHT22;11029;47.820;10.534;2024-02-26T06:03:05;2.30;73.00
21734;DHT22;11029;47.820;10.534;2024-02-26T06:05:50;2.30;72.60
21734;DHT22;11029;47.820;10.534;2024-02-26T06:08:36;2.30;72.20
21734;DHT22;11029;47.820;10.534;2024-02-26T06:11:22;2.20;71.70
21734;DHT22;11029;47.820;10.534;2024-02-26T06:14:08;2.20;73.00
21734;DHT22;11029;47.820;10.534;2024-02-26T06:16:55;2.20;73.00
21734;DHT22;11029;47.820;10.534;2024-02-26T06:19:41;2.20;73.80
21734;DHT22;11029;47.820;10.534;2024-02-26T06:22:27;2.30;73.20
21734;DHT22;11029;47.820;10.534;2024-02-26T06:25:12;2.40;73.00
21734;DHT22;11029;47.820;10.534;2024-02-26T06:27:58;2.50;72.60
21734;DHT22;11029;47.820;10.534;2024-02-26T06:30:43;2.50;72.40
21734;DHT22;11029;47.820;10.534;2024-02-26T06:33:32;2.60;72.30
21734;DHT22;11029;47.820;10.534;2024-02-26T06:36:18;2.70;72.50
21734;DHT22;11029;47.820;10.534;2024-02-26T06:39:04;2.30;73.70
21734;DHT22;11029;47.820;10.534;2024-02-26T06:41:50;2.30;72.90
21734;DHT22;11029;47.820;10.534;2024-02-26T06:44:39;2.40;72.70
21734;DHT22;11029;47.820;10.534;2024-02-26T06:47:25;2.50;72.10
21734;DHT22;11029;47.820;10.534;2024-02-26T06:50:14;2.60;72.10
21734;DHT22;11029;47.820;10.534;2024-02-26T06:52:59;2.60;72.30
21734;DHT22;11029;47.820;10.534;2024-02-26T06:55:45;2.70;72.20
21734;DHT22;11029;47.820;10.534;2024-02-26T06:58:31;2.50;73.00
21734;DHT22;11029;47.820;10.534;2024-02-26T07:01:18;2.70;73.00
21734;DHT22;11029;47.820;10.534;2024-02-26T07:04:04;2.80;72.00
21734;DHT22;11029;47.820;10.534;2024-02-26T07:06:49;2.90;71.00
21734;DHT22;11029;47.820;10.534;2024-02-26T07:09:35;2.90;72.10
21734;DHT22;11029;47.820;10.534;2024-02-26T07:12:20;3.10;70.60
21734;DHT22;11029;47.820;10.534;2024-02-26T07:15:08;3.10;70.90
21734;DHT22;11029;47.820;10.534;2024-02-26T07:17:54;3.30;70.70
21734;DHT22;11029;47.820;10.534;2024-02-26T07:20:40;3.30;70.30
21734;DHT22;11029;47.820;10.534;2024-02-26T07:23:26;3.30;71.00
21734;DHT22;11029;47.820;10.534;2024-02-26T07:26:11;3.30;71.10
21734;DHT22;11029;47.820;10.534;2024-02-26T07:28:57;3.20;69.90
21734;DHT22;11029;47.820;10.534;2024-02-26T07:31:43;3.20;69.50
21734;DHT22;11029;47.820;10.534;2024-02-26T07:34:29;3.40;68.50
21734;DHT22;11029;47.820;10.534;2024-02-26T07:37:15;3.50;68.60
21734;DHT22;11029;47.820;10.534;2024-02-26T07:40:01;3.60;68.10
21734;DHT22;11029;47.820;10.534;2024-02-26T07:42:46;3.70;66.50
21734;DHT22;11029;47.820;10.534;2024-02-26T07:45:32;3.80;65.80
21734;DHT22;11029;47.820;10.534;2024-02-26T07:48:17;3.80;66.10
21734;DHT22;11029;47.820;10.534;2024-02-26T07:51:04;3.90;65.10
21734;DHT22;11029;47.820;10.534;2024-02-26T07:53:50;3.90;64.00
21734;DHT22;11029;47.820;10.534;2024-02-26T07:56:38;4.00;63.30
21734;DHT22;11029;47.820;10.534;2024-02-26T07:59:24;4.10;63.10
21734;DHT22;11029;47.820;10.534;2024-02-26T08:02:09;4.20;63.00
21734;DHT22;11029;47.820;10.534;2024-02-26T08:04:55;4.20;61.60
21734;DHT22;11029;47.820;10.534;2024-02-26T08:07:40;4.20;61.50
21734;DHT22;11029;47.820;10.534;2024-02-26T08:10:26;4.10;62.50
21734;DHT22;11029;47.820;10.534;2024-02-26T08:13:14;4.10;63.60
21734;DHT22;11029;47.820;10.534;2024-02-26T08:16:00;4.30;63.10
21734;DHT22;11029;47.820;10.534;2024-02-26T08:18:46;4.50;63.20
21734;DHT22;11029;47.820;10.534;2024-02-26T08:21:32;4.60;61.80
21734;DHT22;11029;47.820;10.534;2024-02-26T08:24:17;4.60;62.70
21734;DHT22;11029;47.820;10.534;2024-02-26T08:27:03;4.80;62.80
21734;DHT22;11029;47.820;10.534;2024-02-26T08:29:49;5.00;62.70
21734;DHT22;11029;47.820;10.534;2024-02-26T08:32:35;5.20;62.50
21734;DHT22;11029;47.820;10.534;2024-02-26T08:35:20;5.40;61.70
21734;DHT22;11029;47.820;10.534;2024-02-26T08:38:06;5.60;61.30
21734;DHT22;11029;47.820;10.534;2024-02-26T08:40:52;5.80;60.90
21734;DHT22;11029;47.820;10.534;2024-02-26T08:43:38;5.90;60.40
21734;DHT22;11029;47.820;10.534;2024-02-26T08:46:24;6.00;59.60
21734;DHT22;11029;47.820;10.534;2024-02-26T08:49:09;6.20;59.30
21734;DHT22;11029;47.820;10.534;2024-02-26T08:51:56;6.30;58.70
21734;DHT22;11029;47.820;10.534;2024-02-26T08:54:41;6.30;58.90
21734;DHT22;11029;47.820;10.534;2024-02-26T08:57:27;6.50;58.60
21734;DHT22;11029;47.820;10.534;2024-02-26T09:00:13;6.50;58.70
21734;DHT22;11029;47.820;10.534;2024-02-26T09:03:00;6.60;58.90
21734;DHT22;11029;47.820;10.534;2024-02-26T09:05:50;6.70;58.90
21734;DHT22;11029;47.820;10.534;2024-02-26T09:08:35;6.70;59.00
21734;DHT22;11029;47.820;10.534;2024-02-26T09:11:21;6.70;58.60
21734;DHT22;11029;47.820;10.534;2024-02-26T09:14:07;6.70;57.10
21734;DHT22;11029;47.820;10.534;2024-02-26T09:16:52;6.70;57.20
21734;DHT22;11029;47.820;10.534;2024-02-26T09:19:38;6.80;57.30
21734;DHT22;11029;47.820;10.534;2024-02-26T09:22:24;6.90;57.20
21734;DHT22;11029;47.820;10.534;2024-02-26T09:25:09;7.00;57.80
21734;DHT22;11029;47.820;10.534;2024-02-26T09:27:55;7.00;58.00
21734;DHT22;11029;47.820;10.534;2024-02-26T09:30:41;7.20;58.20
21734;DHT22;11029;47.820;10.534;2024-02-26T09:33:26;7.20;57.60
21734;DHT22;11029;47.820;10.534;2024-02-26T09:36:12;7.40;56.90
21734;DHT22;11029;47.820;10.534;2024-02-26T09:38:59;7.50;56.50
21734;DHT22;11029;47.820;10.534;2024-02-26T09:41:46;7.60;56.30
21734;DHT22;11029;47.820;10.534;2024-02-26T09:44:33;7.70;55.80
21734;DHT22;11029;47.820;10.534;2024-02-26T09:47:23;7.90;55.40
21734;DHT22;11029;47.820;10.534;2024-02-26T09:50:11;8.10;54.60
21734;DHT22;11029;47.820;10.534;2024-02-26T09:52:59;8.20;54.10
21734;DHT22;11029;47.820;10.534;2024-02-26T09:55:48;8.20;53.40
21734;DHT22;11029;47.820;10.534;2024-02-26T09:58:34;8.30;52.20
21734;DHT22;11029;47.820;10.534;2024-02-26T10:01:21;8.50;51.60
21734;DHT22;11029;47.820;10.534;2024-02-26T10:04:08;8.60;50.90
21734;DHT22;11029;47.820;10.534;2024-02-26T10:06:54;8.70;49.20
21734;DHT22;11029;47.820;10.534;2024-02-26T10:09:40;8.80;48.90
21734;DHT22;11029;47.820;10.534;2024-02-26T10:12:26;8.80;47.10
21734;DHT22;11029;47.820;10.534;2024-02-26T10:15:13;8.80;47.90
21734;DHT22;11029;47.820;10.534;2024-02-26T10:18:00;8.80;47.20
21734;DHT22;11029;47.820;10.534;2024-02-26T10:21:00;8.80;47.70
21734;DHT22;11029;47.820;10.534;2024-02-26T10:23:47;8.80;47.80
21734;DHT22;11029;47.820;10.534;2024-02-26T10:26:34;8.80;47.70
21734;DHT22;11029;47.820;10.534;2024-02-26T10:29:20;9.00;48.20
21734;DHT22;11029;47.820;10.534;2024-02-26T10:32:06;9.30;48.30
21734;DHT22;11029;47.820;10.534;2024-02-26T10:34:56;9.90;48.10
21734;DHT22;11029;47.820;10.534;2024-02-26T10:37:42;10.30;45.30
21734;DHT22;11029;47.820;10.534;2024-02-26T10:40:27;10.60;45.00
21734;DHT22;11029;47.820;10.534;2024-02-26T10:43:13;10.80;44.40
21734;DHT22;11029;47.820;10.534;2024-02-26T10:45:59;10.80;43.90
21734;DHT22;11029;47.820;10.534;2024-02-26T10:48:52;11.00;44.30
21734;DHT22;11029;47.820;10.534;2024-02-26T10:51:39;11.50;44.20
21734;DHT22;11029;47.820;10.534;2024-02-26T10:54:29;11.90;43.40
21734;DHT22;11029;47.820;10.534;2024-02-26T10:57:16;12.20;42.40
21734;DHT22;11029;47.820;10.534;2024-02-26T11:00:04;12.20;42.40
21734;DHT22;11029;47.820;10.534;2024-02-26T11:02:51;12.30;41.20
21734;DHT22;11029;47.820;10.534;2024-02-26T11:05:39;12.40;40.60
21734;DHT22;11029;47.820;10.534;2024-02-26T11:08:26;12.50;40.50
21734;DHT22;11029;47.820;10.534;2024-02-26T11:11:13;12.60;39.40
21734;DHT22;11029;47.820;10.534;2024-02-26T11:14:01;12.50;38.70
21734;DHT22;11029;47.820;10.534;2024-02-26T11:16:49;12.30;38.80
21734;DHT22;11029;47.820;10.534;2024-02-26T11:19:36;12.10;38.90
21734;DHT22;11029;47.820;10.534;2024-02-26T11:22:22;12.00;39.60
21734;DHT22;11029;47.820;10.534;2024-02-26T11:25:11;12.20;39.40
21734;DHT22;11029;47.820;10.534;2024-02-26T11:28:07;12.20;39.30
21734;DHT22;11029;47.820;10.534;2024-02-26T11:30:59;12.20;40.40
21734;DHT22;11029;47.820;10.534;2024-02-26T11:33:47;12.20;40.90
21734;DHT22;11029;47.820;10.534;2024-02-26T11:36:33;12.20;40.20
21734;DHT22;11029;47.820;10.534;2024-02-26T11:39:18;12.20;40.30
21734;DHT22;11029;47.820;10.534;2024-02-26T11:42:06;12.20;40.70
21734;DHT22;11029;47.820;10.534;2024-02-26T11:44:53;12.30;40.80
21734;DHT22;11029;47.820;10.534;2024-02-26T11:47:41;12.30;40.90
21734;DHT22;11029;47.820;10.534;2024-02-26T11:50:40;12.30;43.20
21734;DHT22;11029;47.820;10.534;2024-02-26T11:53:32;12.30;46.20
21734;DHT22;11029;47.820;10.534;2024-02-26T11:56:21;12.10;46.60
21734;DHT22;11029;47.820;10.534;2024-02-26T11:59:11;11.80;47.50
21734;DHT22;11029;47.820;10.534;2024-02-26T12:01:58;11.50;46.70
21734;DHT22;11029;47.820;10.534;2024-02-26T12:04:47;11.50;46.80
21734;DHT22;11029;47.820;10.534;2024-02-26T12:07:35;11.30;48.10
21734;DHT22;11029;47.820;10.534;2024-02-26T12:10:24;11.20;48.60
21734;DHT22;11029;47.820;10.534;2024-02-26T12:13:12;11.00;49.60
21734;DHT22;11029;47.820;10.534;2024-02-26T12:16:04;10.80;50.30
21734;DHT22;11029;47.820;10.534;2024-02-26T12:18:50;10.70;51.00
21734;DHT22;11029;47.820;10.534;2024-02-26T12:21:37;10.50;51.40
21734;DHT22;11029;47.820;10.534;2024-02-26T12:24:23;10.40;52.00
21734;DHT22;11029;47.820;10.534;2024-02-26T12:27:09;10.30;52.30
21734;DHT22;11029;47.820;10.534;2024-02-26T12:29:55;10.20;52.50
21734;DHT22;11029;47.820;10.534;2024-02-26T12:32:40;10.10;53.90
21734;DHT22;11029;47.820;10.534;2024-02-26T12:35:27;10.10;54.00
21734;DHT22;11029;47.820;10.534;2024-02-26T12:38:17;10.00;54.20
21734;DHT22;11029;47.820;10.534;2024-02-26T12:41:02;10.00;54.20
21734;DHT22;11029;47.820;10.534;2024-02-26T12:43:47;10.00;54.40
21734;DHT22;11029;47.820;10.534;2024-02-26T12:46:35;10.00;54.90
21734;DHT22;11029;47.820;10.534;2024-02-26T12:49:20;9.90;54.30
21734;DHT22;11029;47.820;10.534;2024-02-26T12:52:07;9.80;54.80
21734;DHT22;11029;47.820;10.534;2024-02-26T12:54:53;9.80;54.70
21734;DHT22;11029;47.820;10.534;2024-02-26T12:57:39;9.80;55.20
21734;DHT22;11029;47.820;10.534;2024-02-26T13:00:27;9.80;55.70
21734;DHT22;11029;47.820;10.534;2024-02-26T13:03:14;9.70;55.80
21734;DHT22;11029;47.820;10.534;2024-02-26T13:06:00;9.70;56.20
21734;DHT22;11029;47.820;10.534;2024-02-26T13:08:46;9.50;58.30
21734;DHT22;11029;47.820;10.534;2024-02-26T13:11:32;9.20;60.90
21734;DHT22;11029;47.820;10.534;2024-02-26T13:14:21;9.10;59.60
21734;DHT22;11029;47.820;10.534;2024-02-26T13:17:08;8.90;59.00
21734;DHT22;11029;47.820;10.534;2024-02-26T13:19:54;8.80;60.30
21734;DHT22;11029;47.820;10.534;2024-02-26T13:22:40;8.80;60.00
21734;DHT22;11029;47.820;10.534;2024-02-26T13:25:26;8.70;60.80
21734;DHT22;11029;47.820;10.534;2024-02-26T13:28:19;8.70;61.00
21734;DHT22;11029;47.820;10.534;2024-02-26T13:31:05;8.70;60.70
21734;DHT22;11029;47.820;10.534;2024-02-26T13:33:53;8.70;61.10
21734;DHT22;11029;47.820;10.534;2024-02-26T13:36:40;8.70;61.00
21734;DHT22;11029;47.820;10.534;2024-02-26T13:39:27;8.80;60.40
21734;DHT22;11029;47.820;10.534;2024-02-26T13:42:13;8.90;60.40
21734;DHT22;11029;47.820;10.534;2024-02-26T13:44:59;8.80;61.80
21734;DHT22;11029;47.820;10.534;2024-02-26T13:47:45;8.80;61.70
21734;DHT22;11029;47.820;10.534;2024-02-26T13:50:31;8.90;61.80
21734;DHT22;11029;47.820;10.534;2024-02-26T13:53:17;9.00;61.20
21734;DHT22;11029;47.820;10.534;2024-02-26T13:56:02;9.00;60.80
21734;DHT22;11029;47.820;10.534;2024-02-26T13:58:50;9.10;61.90
21734;DHT22;11029;47.820;10.534;2024-02-26T14:01:36;9.10;62.80
21734;DHT22;11029;47.820;10.534;2024-02-26T14:04:21;9.10;63.50
21734;DHT22;11029;47.820;10.534;2024-02-26T14:07:07;9.10;64.20
21734;DHT22;11029;47.820;10.534;2024-02-26T14:09:54;9.10;61.70
21734;DHT22;11029;47.820;10.534;2024-02-26T14:12:40;9.00;59.80
21734;DHT22;11029;47.820;10.534;2024-02-26T14:15:25;9.00;59.30
21734;DHT22;11029;47.820;10.534;2024-02-26T14:18:11;9.00;59.60
21734;DHT22;11029;47.820;10.534;2024-02-26T14:20:57;9.00;61.80
21734;DHT22;11029;47.820;10.534;2024-02-26T14:23:42;9.00;63.00
21734;DHT22;11029;47.820;10.534;2024-02-26T14:26:29;9.00;65.30
21734;DHT22;11029;47.820;10.534;2024-02-26T14:29:15;9.00;66.60
21734;DHT22;11029;47.820;10.534;2024-02-26T14:32:02;9.00;67.70
21734;DHT22;11029;47.820;10.534;2024-02-26T14:34:48;8.90;67.60
21734;DHT22;11029;47.820;10.534;2024-02-26T14:37:36;8.90;68.20
21734;DHT22;11029;47.820;10.534;2024-02-26T14:40:22;8.80;68.50
21734;DHT22;11029;47.820;10.534;2024-02-26T14:43:07;8.70;68.40
21734;DHT22;11029;47.820;10.534;2024-02-26T14:45:57;8.50;68.50
21734;DHT22;11029;47.820;10.534;2024-02-26T14:48:42;8.40;69.10
21734;DHT22;11029;47.820;10.534;2024-02-26T14:51:28;8.40;69.10
21734;DHT22;11029;47.820;10.534;2024-02-26T14:54:14;8.30;68.60
21734;DHT22;11029;47.820;10.534;2024-02-26T14:56:59;8.20;68.00
21734;DHT22;11029;47.820;10.534;2024-02-26T14:59:45;8.20;68.30
21734;DHT22;11029;47.820;10.534;2024-02-26T15:02:30;8.20;68.40
21734;DHT22;11029;47.820;10.534;2024-02-26T15:05:16;8.20;68.10
21734;DHT22;11029;47.820;10.534;2024-02-26T15:08:03;8.10;68.00
21734;DHT22;11029;47.820;10.534;2024-02-26T15:10:49;8.10;68.40
21734;DHT22;11029;47.820;10.534;2024-02-26T15:13:35;8.00;68.60
21734;DHT22;11029;47.820;10.534;2024-02-26T15:16:21;8.00;68.70
21734;DHT22;11029;47.820;10.534;2024-02-26T15:19:07;7.90;68.70
21734;DHT22;11029;47.820;10.534;2024-02-26T15:21:55;7.90;68.80
21734;DHT22;11029;47.820;10.534;2024-02-26T15:24:44;7.90;68.50
21734;DHT22;11029;47.820;10.534;2024-02-26T15:27:30;7.80;68.40
21734;DHT22;11029;47.820;10.534;2024-02-26T15:30:16;7.80;68.80
21734;DHT22;11029;47.820;10.534;2024-02-26T15:33:01;7.80;68.90
21734;DHT22;11029;47.820;10.534;2024-02-26T15:35:47;7.70;68.80
21734;DHT22;11029;47.820;10.534;2024-02-26T15:38:33;7.70;68.20
21734;DHT22;11029;47.820;10.534;2024-02-26T15:41:18;7.70;67.70
21734;DHT22;11029;47.820;10.534;2024-02-26T15:44:04;7.70;66.90
21734;DHT22;11029;47.820;10.534;2024-02-26T15:46:50;7.70;66.70
21734;DHT22;11029;47.820;10.534;2024-02-26T15:49:35;7.70;66.10
21734;DHT22;11029;47.820;10.534;2024-02-26T15:52:21;7.70;66.30
21734;DHT22;11029;47.820;10.534;2024-02-26T15:55:06;7.60;66.30
21734;DHT22;11029;47.820;10.534;2024-02-26T15:57:53;7.60;66.30
21734;DHT22;11029;47.820;10.534;2024-02-26T16:00:40;7.60;66.60
21734;DHT22;11029;47.820;10.534;2024-02-26T16:03:26;7.60;66.60
21734;DHT22;11029;47.820;10.534;2024-02-26T16:06:20;7.60;66.30
21734;DHT22;11029;47.820;10.534;2024-02-26T16:09:13;7.50;66.50
21734;DHT22;11029;47.820;10.534;2024-02-26T16:12:14;7.50;66.50
21734;DHT22;11029;47.820;10.534;2024-02-26T16:15:19;7.50;66.30
21734;DHT22;11029;47.820;10.534;2024-02-26T16:18:08;7.50;66.30
21734;DHT22;11029;47.820;10.534;2024-02-26T16:20:54;7.40;66.30
21734;DHT22;11029;47.820;10.534;2024-02-26T16:23:40;7.40;65.90
21734;DHT22;11029;47.820;10.534;2024-02-26T16:26:25;7.40;65.50
21734;DHT22;11029;47.820;10.534;2024-02-26T16:29:11;7.40;65.00
21734;DHT22;11029;47.820;10.534;2024-02-26T16:31:56;7.40;65.30
21734;DHT22;11029;47.820;10.534;2024-02-26T16:34:42;7.40;65.40
21734;DHT22;11029;47.820;10.534;2024-02-26T16:37:28;7.40;65.60
21734;DHT22;11029;47.820;10.534;2024-02-26T16:40:15;7.30;65.70
21734;DHT22;11029;47.820;10.534;2024-02-26T16:43:01;7.30;65.90
21734;DHT22;11029;47.820;10.534;2024-02-26T16:45:50;7.30;65.70
21734;DHT22;11029;47.820;10.534;2024-02-26T16:48:36;7.30;65.70
21734;DHT22;11029;47.820;10.534;2024-02-26T16:51:22;7.30;65.80
21734;DHT22;11029;47.820;10.534;2024-02-26T16:54:07;7.30;66.10
21734;DHT22;11029;47.820;10.534;2024-02-26T16:56:53;7.20;65.80
21734;DHT22;11029;47.820;10.534;2024-02-26T16:59:39;7.30;65.70
21734;DHT22;11029;47.820;10.534;2024-02-26T17:02:24;7.20;65.50
21734;DHT22;11029;47.820;10.534;2024-02-26T17:05:10;7.30;65.80
21734;DHT22;11029;47.820;10.534;2024-02-26T17:07:56;7.20;66.00
21734;DHT22;11029;47.820;10.534;2024-02-26T17:10:41;7.20;66.20
21734;DHT22;11029;47.820;10.534;2024-02-26T17:13:27;7.20;66.20
21734;DHT22;11029;47.820;10.534;2024-02-26T17:16:13;7.20;66.30
21734;DHT22;11029;47.820;10.534;2024-02-26T17:18:59;7.10;66.50
21734;DHT22;11029;47.820;10.534;2024-02-26T17:21:45;7.20;65.90
21734;DHT22;11029;47.820;10.534;2024-02-26T17:24:30;7.10;66.00
21734;DHT22;11029;47.820;10.534;2024-02-26T17:27:16;7.10;66.00
21734;DHT22;11029;47.820;10.534;2024-02-26T17:30:02;7.10;65.80